createdAt,value
2023-02-23T00:00:00.843Z,9.24
2023-02-23T00:03:05.107Z,9.27
2023-02-23T00:06:08.668Z,9.25
2023-02-23T00:09:22.602Z,9.28
2023-02-23T00:12:26.877Z,9.31
2023-02-23T00:15:29.872Z,9.37
2023-02-23T00:18:44.933Z,9.34
2023-02-23T00:21:47.572Z,9.39
2023-02-23T00:24:50.184Z,9.38
2023-02-23T00:27:54.781Z,9.44
2023-02-23T00:30:59.577Z,9.43
2023-02-23T00:34:04.768Z,9.39
2023-02-23T00:37:09.520Z,9.45
2023-02-23T00:40:14.628Z,9.30
2023-02-23T00:43:19.794Z,9.34
2023-02-23T00:46:23.983Z,9.44
2023-02-23T00:49:28.285Z,9.45
2023-02-23T00:52:30.872Z,9.51
2023-02-23T00:55:33.453Z,9.34
2023-02-23T00:58:36.422Z,9.56
2023-02-23T01:01:41.594Z,9.50
2023-02-23T01:04:45.652Z,9.59
2023-02-23T01:07:49.180Z,9.53
2023-02-23T01:10:55.092Z,9.63
2023-02-23T01:13:59.948Z,9.65
2023-02-23T01:17:02.529Z,9.51
2023-02-23T01:20:15.537Z,9.64
2023-02-23T01:23:20.872Z,9.68
2023-02-23T01:26:25.980Z,9.65
2023-02-23T01:29:28.596Z,9.67
2023-02-23T01:32:31.721Z,9.64
2023-02-23T01:35:36.194Z,9.52
2023-02-23T01:38:38.840Z,9.58
2023-02-23T01:41:43.251Z,9.46
2023-02-23T01:45:22.197Z,9.52
2023-02-23T01:48:27.912Z,9.60
2023-02-23T01:51:35.041Z,9.48
2023-02-23T01:54:41.838Z,9.55
2023-02-23T01:57:44.486Z,9.57
2023-02-23T02:00:51.387Z,9.64
2023-02-23T02:03:57.169Z,9.62
2023-02-23T02:07:03.723Z,9.63
2023-02-23T02:10:46.641Z,9.51
2023-02-23T02:13:49.300Z,9.45
2023-02-23T02:17:12.576Z,9.61
2023-02-23T02:20:52.504Z,9.58
2023-02-23T02:24:18.740Z,9.58
2023-02-23T02:27:43.410Z,9.54
2023-02-23T02:31:13.148Z,9.60
2023-02-23T02:34:36.844Z,9.66
2023-02-23T02:37:58.561Z,9.43
2023-02-23T02:41:07.549Z,9.39
2023-02-23T02:44:16.682Z,9.55
2023-02-23T02:47:26.622Z,9.57
2023-02-23T02:50:46.220Z,9.55
2023-02-23T02:53:56.496Z,9.51
2023-02-23T02:57:04.278Z,9.54
2023-02-23T03:00:26.331Z,9.50
2023-02-23T03:03:49.487Z,9.47
2023-02-23T03:07:17.161Z,9.47
2023-02-23T03:10:46.331Z,9.48
2023-02-23T03:14:17.101Z,9.41
2023-02-23T03:17:48.668Z,9.47
2023-02-23T03:21:12.526Z,9.38
2023-02-23T03:24:41.269Z,9.27
2023-02-23T03:28:08.376Z,9.29
2023-02-23T03:31:34.894Z,9.30
2023-02-23T03:35:01.608Z,9.22
2023-02-23T03:38:27.760Z,9.24
2023-02-23T03:41:49.964Z,9.19
2023-02-23T03:45:13.983Z,9.24
2023-02-23T03:48:38.734Z,9.32
2023-02-23T03:52:02.058Z,9.22
2023-02-23T03:55:28.457Z,9.27
2023-02-23T03:58:52.891Z,9.28
2023-02-23T04:02:16.062Z,9.30
2023-02-23T04:05:41.622Z,9.32
2023-02-23T04:09:01.952Z,9.35
2023-02-23T04:12:27.718Z,9.15
2023-02-23T04:15:33.624Z,9.32
2023-02-23T04:18:40.427Z,9.34
2023-02-23T04:21:43.015Z,9.31
2023-02-23T04:24:46.984Z,9.27
2023-02-23T04:27:49.803Z,9.25
2023-02-23T04:30:53.218Z,9.18
2023-02-23T04:33:57.581Z,9.26
2023-02-23T04:37:00.174Z,9.33
2023-02-23T04:40:02.823Z,9.40
2023-02-23T04:43:05.395Z,9.24
2023-02-23T04:46:08.359Z,9.26
2023-02-23T04:49:12.280Z,9.34
2023-02-23T04:52:14.858Z,9.26
2023-02-23T04:55:19.356Z,9.12
2023-02-23T04:58:21.936Z,9.28
2023-02-23T05:01:24.652Z,9.29
2023-02-23T05:04:28.789Z,9.33
2023-02-23T05:07:31.445Z,9.25
2023-02-23T05:10:34.051Z,9.23
2023-02-23T05:13:37.280Z,9.38
2023-02-23T05:16:39.948Z,9.35
2023-02-23T05:19:43.890Z,9.31
2023-02-23T05:22:46.491Z,9.24
2023-02-23T05:25:49.070Z,9.28
2023-02-23T05:28:51.679Z,9.27
2023-02-23T05:31:54.504Z,9.28
2023-02-23T05:34:58.509Z,9.17
2023-02-23T05:38:01.112Z,9.28
2023-02-23T05:41:06.339Z,9.30
2023-02-23T05:44:08.953Z,9.25
2023-02-23T05:47:11.787Z,9.31
2023-02-23T05:50:15.741Z,9.07
2023-02-23T05:53:18.348Z,9.21
2023-02-23T05:56:21.539Z,9.24
2023-02-23T05:59:24.153Z,9.27
2023-02-23T06:02:26.776Z,9.26
2023-02-23T06:05:31.288Z,9.31
2023-02-23T06:08:33.879Z,9.18
2023-02-23T06:11:36.475Z,9.20
2023-02-23T06:14:39.086Z,9.20
2023-02-23T06:17:41.655Z,9.17
2023-02-23T06:20:47.068Z,8.94
2023-02-23T06:23:49.714Z,8.96
2023-02-23T06:26:52.764Z,8.95
2023-02-23T06:29:55.349Z,9.05
2023-02-23T06:32:57.924Z,9.13
2023-02-23T06:36:01.862Z,9.12
2023-02-23T06:39:05.034Z,8.74
2023-02-23T06:42:07.612Z,8.82
2023-02-23T06:45:11.550Z,8.98
2023-02-23T06:48:14.248Z,9.06
2023-02-23T06:51:18.538Z,9.15
2023-02-23T06:54:21.266Z,8.58
2023-02-23T06:57:23.998Z,8.74
2023-02-23T07:00:26.892Z,8.91
2023-02-23T07:03:29.480Z,8.95
2023-02-23T07:06:33.461Z,9.10
2023-02-23T07:09:36.163Z,8.55
2023-02-23T07:12:38.787Z,8.76
2023-02-23T07:15:42.461Z,8.78
2023-02-23T07:18:45.158Z,9.02
2023-02-23T07:21:49.110Z,9.13
2023-02-23T07:24:51.728Z,9.06
2023-02-23T07:27:55.030Z,9.06
2023-02-23T07:30:57.882Z,8.64
2023-02-23T07:34:00.563Z,8.54
2023-02-23T07:37:04.509Z,8.85
2023-02-23T07:40:08.435Z,8.92
2023-02-23T07:43:11.055Z,8.88
2023-02-23T07:46:15.478Z,8.96
2023-02-23T07:49:18.212Z,8.96
2023-02-23T07:52:22.153Z,9.03
2023-02-23T07:55:24.836Z,9.01
2023-02-23T07:58:28.120Z,9.14
2023-02-23T08:01:30.876Z,9.13
2023-02-23T08:04:33.706Z,9.15
2023-02-23T08:07:37.758Z,8.90
2023-02-23T08:10:40.471Z,9.05
2023-02-23T08:13:43.585Z,9.12
2023-02-23T08:16:46.231Z,8.77
2023-02-23T08:19:49.857Z,8.84
2023-02-23T08:22:56.230Z,8.95
2023-02-23T08:25:59.535Z,9.14
2023-02-23T08:29:02.148Z,9.04
2023-02-23T08:32:05.211Z,9.20
2023-02-23T08:35:08.692Z,9.05
2023-02-23T08:38:12.684Z,9.10
2023-02-23T08:41:15.367Z,9.12
2023-02-23T08:44:17.939Z,9.04
2023-02-23T08:47:21.895Z,9.12
2023-02-23T08:50:27.276Z,8.99
2023-02-23T08:53:32.780Z,9.20
2023-02-23T08:56:35.364Z,9.25
2023-02-23T08:59:39.128Z,9.17
2023-02-23T09:02:42.113Z,9.17
2023-02-23T09:05:45.158Z,9.30
2023-02-23T09:08:49.688Z,9.34
2023-02-23T09:11:52.328Z,9.38
2023-02-23T09:14:54.913Z,9.10
2023-02-23T09:18:01.430Z,9.04
2023-02-23T09:21:07.463Z,9.14
2023-02-23T09:24:11.552Z,8.72
2023-02-23T09:27:14.695Z,8.90
2023-02-23T09:30:20.592Z,9.09
2023-02-23T09:33:23.503Z,9.19
2023-02-23T09:36:26.862Z,9.08
2023-02-23T09:39:38.171Z,9.23
2023-02-23T09:42:54.056Z,9.22
2023-02-23T09:46:03.492Z,9.41
2023-02-23T09:49:12.695Z,9.19
2023-02-23T09:52:20.787Z,9.16
2023-02-23T09:55:27.706Z,9.00
2023-02-23T09:58:32.434Z,9.23
2023-02-23T10:01:52.084Z,9.16
2023-02-23T10:05:00.141Z,9.12
2023-02-23T10:08:07.325Z,8.93
2023-02-23T10:11:19.113Z,9.01
2023-02-23T10:14:35.030Z,9.07
2023-02-23T10:17:43.642Z,8.96
2023-02-23T10:20:54.821Z,8.66
2023-02-23T10:24:02.781Z,8.73
2023-02-23T10:27:11.441Z,8.69
2023-02-23T10:30:20.617Z,8.57
2023-02-23T10:33:30.114Z,8.41
2023-02-23T10:36:37.139Z,8.44
2023-02-23T10:39:42.964Z,8.52
2023-02-23T10:42:46.929Z,8.67
2023-02-23T10:45:51.447Z,8.72
2023-02-23T10:48:57.003Z,8.86
2023-02-23T10:52:02.880Z,9.00
2023-02-23T10:55:07.532Z,9.05
2023-02-23T10:58:18.293Z,9.20
2023-02-23T11:01:36.306Z,9.05
2023-02-23T11:04:39.265Z,9.00
2023-02-23T11:07:43.239Z,8.88
2023-02-23T11:10:57.069Z,9.06
2023-02-23T11:14:16.732Z,8.99
2023-02-23T11:17:28.060Z,9.13
2023-02-23T11:20:35.985Z,8.95
2023-02-23T11:23:41.143Z,8.82
2023-02-23T11:26:45.143Z,8.93
2023-02-23T11:29:53.272Z,9.09
2023-02-23T11:32:58.521Z,9.13
2023-02-23T11:36:13.530Z,9.22
2023-02-23T11:39:22.782Z,9.22
2023-02-23T11:42:27.248Z,9.06
2023-02-23T11:45:34.972Z,9.08
2023-02-23T11:48:45.259Z,8.79
2023-02-23T11:51:50.052Z,8.75
2023-02-23T11:54:57.277Z,8.69
2023-02-23T11:58:23.421Z,8.77
2023-02-23T12:01:41.656Z,8.74
2023-02-23T12:04:47.526Z,8.82
2023-02-23T12:07:58.263Z,8.88
2023-02-23T12:11:05.265Z,8.80
2023-02-23T12:14:13.504Z,8.95
2023-02-23T12:17:22.988Z,9.00
2023-02-23T12:20:29.710Z,9.15
2023-02-23T12:23:37.911Z,9.35
2023-02-23T12:26:48.875Z,9.21
2023-02-23T12:30:02.946Z,9.53
2023-02-23T12:33:12.817Z,9.57
2023-02-23T12:36:26.197Z,9.48
2023-02-23T12:39:32.791Z,9.18
2023-02-23T12:42:42.798Z,9.06
2023-02-23T12:45:50.650Z,9.34
2023-02-23T12:49:03.988Z,9.16
2023-02-23T12:52:14.622Z,9.35
2023-02-23T12:55:22.789Z,9.58
2023-02-23T12:58:34.493Z,9.50
2023-02-23T13:01:43.288Z,9.28
2023-02-23T13:05:15.424Z,9.15
2023-02-23T13:08:30.175Z,9.39
2023-02-23T13:12:06.227Z,9.45
2023-02-23T13:15:30.992Z,9.48
2023-02-23T13:18:38.567Z,9.15
2023-02-23T13:21:47.247Z,9.17
2023-02-23T13:24:52.341Z,9.02
2023-02-23T13:28:00.750Z,8.99
2023-02-23T13:31:05.798Z,9.27
2023-02-23T13:34:13.713Z,9.39
2023-02-23T13:37:22.533Z,9.08
2023-02-23T13:40:32.413Z,9.44
2023-02-23T13:43:41.540Z,9.28
2023-02-23T13:46:50.022Z,9.38
2023-02-23T13:49:59.230Z,9.17
2023-02-23T13:53:07.752Z,8.86
2023-02-23T13:56:16.161Z,8.83
2023-02-23T13:59:21.746Z,8.87
2023-02-23T14:02:35.191Z,8.79
2023-02-23T14:05:44.456Z,8.84
2023-02-23T14:08:53.298Z,8.91
2023-02-23T14:12:03.151Z,8.78
2023-02-23T14:15:41.607Z,8.92
2023-02-23T14:18:57.902Z,8.86
2023-02-23T14:22:05.323Z,8.63
2023-02-23T14:25:47.319Z,8.87
2023-02-23T14:29:40.040Z,9.07
2023-02-23T14:32:44.131Z,8.87
2023-02-23T14:35:49.191Z,9.21
2023-02-23T14:39:00.197Z,9.30
2023-02-23T14:42:07.692Z,9.26
2023-02-23T14:45:20.529Z,9.24
2023-02-23T14:48:23.460Z,8.81
2023-02-23T14:51:35.065Z,9.24
2023-02-23T14:54:39.933Z,8.98
2023-02-23T14:57:44.928Z,8.95
2023-02-23T15:00:48.937Z,9.16
2023-02-23T15:04:06.308Z,8.85
2023-02-23T15:07:18.511Z,8.64
2023-02-23T15:10:25.943Z,8.85
2023-02-23T15:13:32.835Z,9.05
2023-02-23T15:16:37.690Z,8.81
2023-02-23T15:19:40.311Z,8.95
2023-02-23T15:22:43.020Z,8.96
2023-02-23T15:25:48.170Z,9.03
2023-02-23T15:28:52.202Z,9.18
2023-02-23T15:31:57.952Z,9.04
2023-02-23T15:35:03.625Z,9.13
2023-02-23T15:38:17.974Z,9.03
2023-02-23T15:41:32.331Z,9.05
2023-02-23T15:44:44.023Z,9.12
2023-02-23T15:47:47.717Z,9.10
2023-02-23T15:50:54.035Z,8.80
2023-02-23T15:53:56.804Z,8.88
2023-02-23T15:57:07.907Z,8.86
2023-02-23T16:00:32.608Z,8.80
2023-02-23T16:03:37.919Z,9.09
2023-02-23T16:06:50.646Z,8.99
2023-02-23T16:09:55.132Z,8.94
2023-02-23T16:12:57.753Z,8.79
2023-02-23T16:16:01.879Z,8.77
2023-02-23T16:19:05.109Z,8.58
2023-02-23T16:22:12.155Z,8.65
2023-02-23T16:25:17.388Z,8.65
2023-02-23T16:28:22.961Z,8.90
2023-02-23T16:31:43.612Z,8.85
2023-02-23T16:34:50.763Z,8.74
2023-02-23T16:38:02.086Z,8.53
2023-02-23T16:41:05.534Z,8.57
2023-02-23T16:44:13.282Z,8.52
2023-02-23T16:47:37.295Z,8.50
2023-02-23T16:50:40.607Z,8.36
2023-02-23T16:53:43.337Z,8.50
2023-02-23T16:56:47.784Z,8.26
2023-02-23T16:59:51.599Z,8.17
2023-02-23T17:02:57.233Z,8.27
2023-02-23T17:06:01.790Z,8.13
2023-02-23T17:09:05.361Z,8.06
2023-02-23T17:12:08.298Z,8.08
2023-02-23T17:15:18.085Z,8.27
2023-02-23T17:21:28.377Z,8.38
2023-02-23T17:24:30.942Z,8.38
2023-02-23T17:27:33.543Z,8.25
2023-02-23T17:30:37.959Z,8.42
2023-02-23T17:33:43.002Z,8.20
2023-02-23T17:36:45.580Z,8.45
2023-02-23T17:39:49.559Z,8.01
2023-02-23T17:42:52.133Z,7.96
2023-02-23T17:45:55.924Z,7.78
2023-02-23T17:48:59.853Z,7.80
2023-02-23T17:52:02.958Z,8.00
2023-02-23T17:55:06.137Z,8.45
2023-02-23T17:58:08.910Z,8.39
2023-02-23T18:01:11.520Z,7.89
2023-02-23T18:04:15.884Z,7.69
2023-02-23T18:07:18.788Z,7.63
2023-02-23T18:10:25.181Z,7.30
2023-02-23T18:13:28.677Z,7.17
2023-02-23T18:16:31.327Z,7.09
2023-02-23T18:19:35.593Z,7.17
2023-02-23T18:22:38.170Z,7.20
2023-02-23T18:25:40.788Z,7.03
2023-02-23T18:28:44.467Z,7.32
2023-02-23T18:31:48.154Z,7.42
2023-02-23T18:34:52.237Z,6.90
2023-02-23T18:37:55.482Z,7.13
2023-02-23T18:40:58.639Z,7.19
2023-02-23T18:44:03.228Z,7.40
2023-02-23T18:47:05.905Z,7.13
2023-02-23T18:50:12.702Z,7.15
2023-02-23T18:53:15.322Z,7.00
2023-02-23T18:56:22.712Z,6.98
2023-02-23T18:59:25.323Z,7.26
2023-02-23T19:02:28.663Z,7.50
2023-02-23T19:05:33.061Z,7.61
2023-02-23T19:08:35.828Z,7.68
2023-02-23T19:11:38.748Z,7.46
2023-02-23T19:14:49.548Z,7.57
2023-02-23T19:17:54.299Z,7.52
2023-02-23T19:20:58.557Z,7.50
2023-02-23T19:24:02.756Z,7.04
2023-02-23T19:27:05.456Z,6.91
2023-02-23T19:30:10.314Z,7.19
2023-02-23T19:33:14.242Z,7.12
2023-02-23T19:36:20.612Z,7.12
2023-02-23T19:39:23.210Z,7.21
2023-02-23T19:42:25.805Z,7.39
2023-02-23T19:45:28.460Z,7.41
2023-02-23T19:48:31.075Z,7.42
2023-02-23T19:51:35.216Z,7.01
2023-02-23T19:54:37.867Z,7.15
2023-02-23T19:57:40.571Z,7.21
2023-02-23T20:00:43.177Z,7.29
2023-02-23T20:03:49.389Z,6.95
2023-02-23T20:06:53.352Z,6.86
2023-02-23T20:09:56.467Z,6.69
2023-02-23T20:12:59.022Z,6.52
2023-02-23T20:16:03.626Z,6.41
2023-02-23T20:19:07.544Z,6.57
2023-02-23T20:22:11.527Z,6.24
2023-02-23T20:25:15.711Z,6.46
2023-02-23T20:28:18.747Z,6.33
2023-02-23T20:31:25.640Z,6.49
2023-02-23T20:34:29.549Z,6.40
2023-02-23T20:37:33.923Z,6.06
2023-02-23T20:40:36.864Z,6.27
2023-02-23T20:43:40.381Z,6.14
2023-02-23T20:46:45.009Z,6.08
2023-02-23T20:49:47.640Z,6.16
2023-02-23T20:52:51.760Z,5.98
2023-02-23T20:55:55.104Z,5.78
2023-02-23T20:58:57.678Z,5.80
2023-02-23T21:02:04.168Z,6.02
2023-02-23T21:05:10.153Z,6.05
2023-02-23T21:08:14.428Z,6.29
2023-02-23T21:11:18.086Z,6.19
2023-02-23T21:14:21.460Z,6.20
2023-02-23T21:17:24.079Z,6.21
2023-02-23T21:20:27.465Z,6.07
2023-02-23T21:23:31.389Z,5.86
2023-02-23T21:26:34.129Z,5.80
2023-02-23T21:29:36.787Z,6.02
2023-02-23T21:32:42.054Z,5.84
2023-02-23T21:35:44.852Z,5.81
2023-02-23T21:38:48.813Z,6.12
2023-02-23T21:41:51.432Z,6.10
2023-02-23T21:44:54.246Z,6.07
2023-02-23T21:47:56.858Z,6.09
2023-02-23T21:51:03.812Z,6.10
2023-02-23T21:54:07.828Z,5.91
2023-02-23T21:57:10.975Z,6.01
2023-02-23T22:00:16.069Z,6.01
2023-02-23T22:03:18.764Z,6.07
2023-02-23T22:06:23.564Z,5.98
2023-02-23T22:09:27.540Z,5.86
2023-02-23T22:12:32.545Z,5.86
2023-02-23T22:15:35.515Z,5.86
2023-02-23T22:18:38.286Z,5.66
2023-02-23T22:21:42.693Z,5.67
2023-02-23T22:24:48.653Z,5.83
2023-02-23T22:27:51.372Z,5.66
2023-02-23T22:30:55.305Z,5.69
2023-02-23T22:33:58.044Z,5.41
2023-02-23T22:37:00.728Z,5.55
2023-02-23T22:40:13.097Z,5.80
2023-02-23T22:43:16.258Z,5.72
2023-02-23T22:46:19.019Z,5.80
2023-02-23T22:49:21.623Z,5.85
2023-02-23T22:52:24.332Z,5.90
2023-02-23T22:55:29.220Z,6.00
2023-02-23T22:58:32.698Z,5.99
2023-02-23T23:01:38.331Z,6.09
2023-02-23T23:04:41.171Z,5.59
2023-02-23T23:07:46.431Z,5.64
2023-02-23T23:10:50.978Z,5.79
2023-02-23T23:14:00.376Z,5.60
2023-02-23T23:17:03.051Z,5.84
2023-02-23T23:20:11.799Z,5.64
2023-02-23T23:23:14.877Z,5.26
2023-02-23T23:26:20.713Z,5.37
2023-02-23T23:29:25.543Z,5.44
2023-02-23T23:32:29.764Z,5.49
2023-02-23T23:35:34.274Z,5.38
2023-02-23T23:38:38.501Z,5.74
2023-02-23T23:41:43.893Z,5.87
2023-02-23T23:44:46.466Z,5.89
2023-02-23T23:47:49.054Z,5.65
2023-02-23T23:50:51.620Z,5.70
2023-02-23T23:53:54.224Z,5.79
2023-02-23T23:57:01.235Z,5.33
